sensor_id;sensor_type;location;lat;lon;timestamp;P1;durP1;ratioP1;P2;durP2;ratioP2
2019;SDS011;1014;51.960;8.542;2023-04-24T00:01:03;18.83;;;17.93;;
2019;SDS011;1014;51.960;8.542;2023-04-24T00:03:32;18.83;;;18.03;;
2019;SDS011;1014;51.960;8.542;2023-04-24T00:05:59;19.00;;;18.10;;
2019;SDS011;1014;51.960;8.542;2023-04-24T00:08:27;19.30;;;18.40;;
2019;SDS011;1014;51.960;8.542;2023-04-24T00:10:55;17.77;;;16.97;;
2019;SDS011;1014;51.960;8.542;2023-04-24T00:13:22;17.93;;;17.03;;
2019;SDS011;1014;51.960;8.542;2023-04-24T00:15:49;18.10;;;17.23;;
2019;SDS011;1014;51.960;8.542;2023-04-24T00:18:16;18.40;;;17.50;;
2019;SDS011;1014;51.960;8.542;2023-04-24T00:20:43;17.50;;;16.70;;
2019;SDS011;1014;51.960;8.542;2023-04-24T00:23:11;17.77;;;16.97;;
2019;SDS011;1014;51.960;8.542;2023-04-24T00:25:38;18.07;;;17.27;;
2019;SDS011;1014;51.960;8.542;2023-04-24T00:28:07;18.20;;;17.40;;
2019;SDS011;1014;51.960;8.542;2023-04-24T00:30:34;18.97;;;17.87;;
2019;SDS011;1014;51.960;8.542;2023-04-24T00:33:01;18.83;;;17.93;;
2019;SDS011;1014;51.960;8.542;2023-04-24T00:35:28;18.00;;;17.20;;
2019;SDS011;1014;51.960;8.542;2023-04-24T00:37:55;18.80;;;17.60;;
2019;SDS011;1014;51.960;8.542;2023-04-24T00:40:22;19.07;;;18.07;;
2019;SDS011;1014;51.960;8.542;2023-04-24T00:42:49;19.23;;;18.33;;
2019;SDS011;1014;51.960;8.542;2023-04-24T00:45:18;18.87;;;18.00;;
2019;SDS011;1014;51.960;8.542;2023-04-24T00:47:45;21.53;;;20.37;;
2019;SDS011;1014;51.960;8.542;2023-04-24T00:50:12;18.43;;;17.53;;
2019;SDS011;1014;51.960;8.542;2023-04-24T00:52:41;18.73;;;17.83;;
2019;SDS011;1014;51.960;8.542;2023-04-24T00:55:08;17.83;;;17.03;;
2019;SDS011;1014;51.960;8.542;2023-04-24T00:57:35;17.90;;;17.10;;
2019;SDS011;1014;51.960;8.542;2023-04-24T01:00:02;18.60;;;17.70;;
2019;SDS011;1014;51.960;8.542;2023-04-24T01:02:32;18.57;;;17.67;;
2019;SDS011;1014;51.960;8.542;2023-04-24T01:05:00;18.00;;;17.00;;
2019;SDS011;1014;51.960;8.542;2023-04-24T01:07:27;18.30;;;17.20;;
2019;SDS011;1014;51.960;8.542;2023-04-24T01:09:54;18.07;;;17.17;;
2019;SDS011;1014;51.960;8.542;2023-04-24T01:12:21;18.60;;;17.60;;
2019;SDS011;1014;51.960;8.542;2023-04-24T01:14:48;17.63;;;16.73;;
2019;SDS011;1014;51.960;8.542;2023-04-24T01:17:15;17.57;;;16.77;;
2019;SDS011;1014;51.960;8.542;2023-04-24T01:19:44;17.60;;;16.80;;
2019;SDS011;1014;51.960;8.542;2023-04-24T01:22:12;17.60;;;16.70;;
2019;SDS011;1014;51.960;8.542;2023-04-24T01:24:39;17.00;;;16.20;;
2019;SDS011;1014;51.960;8.542;2023-04-24T01:27:07;17.77;;;16.77;;
2019;SDS011;1014;51.960;8.542;2023-04-24T01:29:34;18.10;;;17.17;;
2019;SDS011;1014;51.960;8.542;2023-04-24T01:32:01;17.30;;;16.50;;
2019;SDS011;1014;51.960;8.542;2023-04-24T01:34:29;18.13;;;17.13;;
2019;SDS011;1014;51.960;8.542;2023-04-24T01:36:56;18.37;;;17.47;;
2019;SDS011;1014;51.960;8.542;2023-04-24T01:39:24;17.73;;;16.83;;
2019;SDS011;1014;51.960;8.542;2023-04-24T01:41:53;18.07;;;17.17;;
2019;SDS011;1014;51.960;8.542;2023-04-24T01:44:20;17.07;;;16.27;;
2019;SDS011;1014;51.960;8.542;2023-04-24T01:46:47;18.07;;;17.27;;
2019;SDS011;1014;51.960;8.542;2023-04-24T01:49:15;17.50;;;16.60;;
2019;SDS011;1014;51.960;8.542;2023-04-24T01:51:42;18.57;;;17.67;;
2019;SDS011;1014;51.960;8.542;2023-04-24T01:54:10;18.50;;;17.50;;
2019;SDS011;1014;51.960;8.542;2023-04-24T01:56:39;18.60;;;17.20;;
2019;SDS011;1014;51.960;8.542;2023-04-24T01:59:08;17.83;;;17.03;;
2019;SDS011;1014;51.960;8.542;2023-04-24T02:01:36;18.83;;;17.47;;
2019;SDS011;1014;51.960;8.542;2023-04-24T02:04:05;17.87;;;17.07;;
2019;SDS011;1014;51.960;8.542;2023-04-24T02:06:32;86.40;;;79.33;;
2019;SDS011;1014;51.960;8.542;2023-04-24T02:09:00;25.77;;;17.10;;
2019;SDS011;1014;51.960;8.542;2023-04-24T02:11:28;362.75;;;171.50;;
2019;SDS011;1014;51.960;8.542;2023-04-24T02:13:57;17.43;;;16.63;;
2019;SDS011;1014;51.960;8.542;2023-04-24T02:16:24;18.23;;;17.33;;
2019;SDS011;1014;51.960;8.542;2023-04-24T02:18:51;17.73;;;16.83;;
2019;SDS011;1014;51.960;8.542;2023-04-24T02:21:18;210.63;;;122.67;;
2019;SDS011;1014;51.960;8.542;2023-04-24T02:23:45;18.33;;;17.47;;
2019;SDS011;1014;51.960;8.542;2023-04-24T02:26:13;181.67;;;110.20;;
2019;SDS011;1014;51.960;8.542;2023-04-24T02:28:41;346.33;;;133.93;;
2019;SDS011;1014;51.960;8.542;2023-04-24T02:31:10;385.23;;;141.93;;
2019;SDS011;1014;51.960;8.542;2023-04-24T02:33:37;321.17;;;123.45;;
2019;SDS011;1014;51.960;8.542;2023-04-24T02:36:05;17.57;;;16.67;;
2019;SDS011;1014;51.960;8.542;2023-04-24T02:38:32;17.73;;;16.83;;
2019;SDS011;1014;51.960;8.542;2023-04-24T02:41:00;18.37;;;17.37;;
2019;SDS011;1014;51.960;8.542;2023-04-24T02:43:31;18.27;;;17.37;;
2019;SDS011;1014;51.960;8.542;2023-04-24T02:45:58;18.03;;;17.03;;
2019;SDS011;1014;51.960;8.542;2023-04-24T02:48:27;17.73;;;16.90;;
2019;SDS011;1014;51.960;8.542;2023-04-24T02:50:55;17.33;;;16.53;;
2019;SDS011;1014;51.960;8.542;2023-04-24T02:53:23;18.47;;;17.57;;
2019;SDS011;1014;51.960;8.542;2023-04-24T02:55:52;16.70;;;15.90;;
2019;SDS011;1014;51.960;8.542;2023-04-24T02:58:19;17.47;;;16.57;;
2019;SDS011;1014;51.960;8.542;2023-04-24T03:00:47;16.73;;;15.87;;
2019;SDS011;1014;51.960;8.542;2023-04-24T03:03:15;17.90;;;16.63;;
2019;SDS011;1014;51.960;8.542;2023-04-24T03:05:44;17.43;;;16.53;;
2019;SDS011;1014;51.960;8.542;2023-04-24T03:08:12;17.20;;;16.40;;
2019;SDS011;1014;51.960;8.542;2023-04-24T03:10:46;16.93;;;16.13;;
2019;SDS011;1014;51.960;8.542;2023-04-24T03:13:21;120.30;;;72.77;;
2019;SDS011;1014;51.960;8.542;2023-04-24T03:15:59;17.73;;;16.80;;
2019;SDS011;1014;51.960;8.542;2023-04-24T03:18:29;17.70;;;16.70;;
2019;SDS011;1014;51.960;8.542;2023-04-24T03:23:48;18.17;;;17.07;;
2019;SDS011;1014;51.960;8.542;2023-04-24T03:26:18;17.33;;;16.40;;
2019;SDS011;1014;51.960;8.542;2023-04-24T03:28:46;17.10;;;16.30;;
2019;SDS011;1014;51.960;8.542;2023-04-24T03:31:14;17.67;;;16.87;;
2019;SDS011;1014;51.960;8.542;2023-04-24T03:33:41;18.00;;;17.00;;
2019;SDS011;1014;51.960;8.542;2023-04-24T03:36:09;17.73;;;16.83;;
2019;SDS011;1014;51.960;8.542;2023-04-24T03:38:37;17.23;;;16.43;;
2019;SDS011;1014;51.960;8.542;2023-04-24T03:41:06;18.53;;;17.43;;
2019;SDS011;1014;51.960;8.542;2023-04-24T03:43:33;18.23;;;17.30;;
2019;SDS011;1014;51.960;8.542;2023-04-24T03:46:00;18.63;;;17.53;;
2019;SDS011;1014;51.960;8.542;2023-04-24T03:48:28;18.47;;;17.40;;
2019;SDS011;1014;51.960;8.542;2023-04-24T03:50:56;17.73;;;16.73;;
2019;SDS011;1014;51.960;8.542;2023-04-24T03:53:26;18.03;;;17.03;;
2019;SDS011;1014;51.960;8.542;2023-04-24T03:55:53;18.17;;;17.27;;
2019;SDS011;1014;51.960;8.542;2023-04-24T03:58:22;19.23;;;18.00;;
2019;SDS011;1014;51.960;8.542;2023-04-24T04:00:49;18.50;;;17.30;;
2019;SDS011;1014;51.960;8.542;2023-04-24T04:03:16;18.30;;;17.40;;
2019;SDS011;1014;51.960;8.542;2023-04-24T04:05:46;18.67;;;17.67;;
2019;SDS011;1014;51.960;8.542;2023-04-24T04:08:14;19.47;;;18.30;;
2019;SDS011;1014;51.960;8.542;2023-04-24T04:10:42;18.23;;;17.33;;
2019;SDS011;1014;51.960;8.542;2023-04-24T04:13:09;18.37;;;17.43;;
2019;SDS011;1014;51.960;8.542;2023-04-24T04:15:39;19.13;;;18.10;;
2019;SDS011;1014;51.960;8.542;2023-04-24T04:18:06;18.60;;;17.57;;
2019;SDS011;1014;51.960;8.542;2023-04-24T04:20:34;19.27;;;18.27;;
2019;SDS011;1014;51.960;8.542;2023-04-24T04:23:01;19.87;;;18.77;;
2019;SDS011;1014;51.960;8.542;2023-04-24T04:25:29;20.13;;;18.93;;
2019;SDS011;1014;51.960;8.542;2023-04-24T04:27:57;19.70;;;18.60;;
2019;SDS011;1014;51.960;8.542;2023-04-24T04:30:25;19.87;;;18.77;;
2019;SDS011;1014;51.960;8.542;2023-04-24T04:32:55;20.57;;;19.37;;
2019;SDS011;1014;51.960;8.542;2023-04-24T04:35:22;19.00;;;18.10;;
2019;SDS011;1014;51.960;8.542;2023-04-24T04:37:50;18.87;;;17.87;;
2019;SDS011;1014;51.960;8.542;2023-04-24T04:40:18;19.27;;;18.27;;
2019;SDS011;1014;51.960;8.542;2023-04-24T04:42:45;18.80;;;17.80;;
2019;SDS011;1014;51.960;8.542;2023-04-24T04:45:13;18.67;;;17.77;;
2019;SDS011;1014;51.960;8.542;2023-04-24T04:47:42;19.43;;;18.37;;
2019;SDS011;1014;51.960;8.542;2023-04-24T04:50:12;20.47;;;19.27;;
2019;SDS011;1014;51.960;8.542;2023-04-24T04:52:41;19.07;;;18.07;;
2019;SDS011;1014;51.960;8.542;2023-04-24T04:55:09;20.83;;;19.70;;
2019;SDS011;1014;51.960;8.542;2023-04-24T04:57:38;20.23;;;19.03;;
2019;SDS011;1014;51.960;8.542;2023-04-24T05:00:06;22.97;;;21.47;;
2019;SDS011;1014;51.960;8.542;2023-04-24T05:02:36;22.07;;;20.77;;
2019;SDS011;1014;51.960;8.542;2023-04-24T05:05:04;22.87;;;21.30;;
2019;SDS011;1014;51.960;8.542;2023-04-24T05:07:33;23.77;;;22.07;;
2019;SDS011;1014;51.960;8.542;2023-04-24T05:10:01;32.47;;;26.57;;
2019;SDS011;1014;51.960;8.542;2023-04-24T05:12:29;342.90;;;128.65;;
2019;SDS011;1014;51.960;8.542;2023-04-24T05:14:56;24.70;;;22.90;;
2019;SDS011;1014;51.960;8.542;2023-04-24T05:17:23;25.73;;;24.03;;
2019;SDS011;1014;51.960;8.542;2023-04-24T05:19:50;23.10;;;21.30;;
2019;SDS011;1014;51.960;8.542;2023-04-24T05:22:17;21.83;;;20.43;;
2019;SDS011;1014;51.960;8.542;2023-04-24T05:24:47;23.03;;;21.43;;
2019;SDS011;1014;51.960;8.542;2023-04-24T05:27:14;24.63;;;23.10;;
2019;SDS011;1014;51.960;8.542;2023-04-24T05:29:42;26.73;;;24.83;;
2019;SDS011;1014;51.960;8.542;2023-04-24T05:32:10;24.00;;;22.50;;
2019;SDS011;1014;51.960;8.542;2023-04-24T05:34:37;26.83;;;24.93;;
2019;SDS011;1014;51.960;8.542;2023-04-24T05:37:05;23.33;;;21.83;;
2019;SDS011;1014;51.960;8.542;2023-04-24T05:39:35;27.20;;;25.40;;
2019;SDS011;1014;51.960;8.542;2023-04-24T05:42:04;25.67;;;23.80;;
2019;SDS011;1014;51.960;8.542;2023-04-24T05:44:32;28.40;;;26.20;;
2019;SDS011;1014;51.960;8.542;2023-04-24T05:46:59;28.33;;;26.20;;
2019;SDS011;1014;51.960;8.542;2023-04-24T05:49:27;23.67;;;21.97;;
2019;SDS011;1014;51.960;8.542;2023-04-24T05:51:54;25.10;;;23.30;;
2019;SDS011;1014;51.960;8.542;2023-04-24T05:54:22;26.03;;;24.23;;
2019;SDS011;1014;51.960;8.542;2023-04-24T05:56:50;27.90;;;25.80;;
2019;SDS011;1014;51.960;8.542;2023-04-24T06:02:05;27.20;;;24.90;;
2019;SDS011;1014;51.960;8.542;2023-04-24T06:04:32;23.53;;;21.90;;
2019;SDS011;1014;51.960;8.542;2023-04-24T06:07:00;27.30;;;25.20;;
2019;SDS011;1014;51.960;8.542;2023-04-24T06:09:28;23.43;;;21.93;;
2019;SDS011;1014;51.960;8.542;2023-04-24T06:11:55;22.60;;;21.10;;
2019;SDS011;1014;51.960;8.542;2023-04-24T06:14:23;26.80;;;24.70;;
2019;SDS011;1014;51.960;8.542;2023-04-24T06:16:53;24.20;;;22.37;;
2019;SDS011;1014;51.960;8.542;2023-04-24T06:19:22;27.70;;;25.40;;
2019;SDS011;1014;51.960;8.542;2023-04-24T06:21:50;23.77;;;22.23;;
2019;SDS011;1014;51.960;8.542;2023-04-24T06:24:18;25.67;;;23.77;;
2019;SDS011;1014;51.960;8.542;2023-04-24T06:26:46;30.17;;;26.03;;
2019;SDS011;1014;51.960;8.542;2023-04-24T06:29:15;27.10;;;25.30;;
2019;SDS011;1014;51.960;8.542;2023-04-24T06:31:43;24.67;;;22.73;;
2019;SDS011;1014;51.960;8.542;2023-04-24T06:34:18;25.53;;;23.73;;
2019;SDS011;1014;51.960;8.542;2023-04-24T06:36:47;23.97;;;22.07;;
2019;SDS011;1014;51.960;8.542;2023-04-24T06:39:16;22.37;;;20.97;;
2019;SDS011;1014;51.960;8.542;2023-04-24T06:41:43;27.57;;;25.57;;
2019;SDS011;1014;51.960;8.542;2023-04-24T06:44:11;27.10;;;25.13;;
2019;SDS011;1014;51.960;8.542;2023-04-24T06:46:40;28.20;;;26.03;;
2019;SDS011;1014;51.960;8.542;2023-04-24T06:49:08;26.40;;;24.60;;
2019;SDS011;1014;51.960;8.542;2023-04-24T06:51:36;30.73;;;28.57;;
2019;SDS011;1014;51.960;8.542;2023-04-24T06:54:05;26.83;;;24.67;;
2019;SDS011;1014;51.960;8.542;2023-04-24T06:56:32;26.60;;;24.70;;
2019;SDS011;1014;51.960;8.542;2023-04-24T06:58:59;28.53;;;26.50;;
2019;SDS011;1014;51.960;8.542;2023-04-24T07:01:27;28.13;;;25.97;;
2019;SDS011;1014;51.960;8.542;2023-04-24T07:03:54;23.27;;;21.70;;
2019;SDS011;1014;51.960;8.542;2023-04-24T07:06:21;24.67;;;22.97;;
2019;SDS011;1014;51.960;8.542;2023-04-24T07:08:48;23.13;;;21.60;;
2019;SDS011;1014;51.960;8.542;2023-04-24T07:11:17;25.47;;;23.77;;
2019;SDS011;1014;51.960;8.542;2023-04-24T07:13:45;27.00;;;24.57;;
2019;SDS011;1014;51.960;8.542;2023-04-24T07:16:13;29.37;;;26.97;;
2019;SDS011;1014;51.960;8.542;2023-04-24T07:18:40;25.77;;;24.17;;
2019;SDS011;1014;51.960;8.542;2023-04-24T07:21:07;26.77;;;24.73;;
2019;SDS011;1014;51.960;8.542;2023-04-24T07:23:35;22.03;;;20.53;;
2019;SDS011;1014;51.960;8.542;2023-04-24T07:26:02;27.03;;;25.13;;
2019;SDS011;1014;51.960;8.542;2023-04-24T07:28:32;25.20;;;23.37;;
2019;SDS011;1014;51.960;8.542;2023-04-24T07:31:00;23.73;;;22.10;;
2019;SDS011;1014;51.960;8.542;2023-04-24T07:33:27;22.73;;;21.27;;
2019;SDS011;1014;51.960;8.542;2023-04-24T07:35:55;22.13;;;20.83;;
2019;SDS011;1014;51.960;8.542;2023-04-24T07:38:23;24.27;;;22.57;;
2019;SDS011;1014;51.960;8.542;2023-04-24T07:40:51;25.37;;;23.63;;
2019;SDS011;1014;51.960;8.542;2023-04-24T07:43:19;24.63;;;22.63;;
2019;SDS011;1014;51.960;8.542;2023-04-24T07:45:50;25.70;;;23.93;;
2019;SDS011;1014;51.960;8.542;2023-04-24T07:48:17;25.23;;;23.13;;
2019;SDS011;1014;51.960;8.542;2023-04-24T07:50:46;25.37;;;23.37;;
2019;SDS011;1014;51.960;8.542;2023-04-24T07:53:14;21.20;;;20.10;;
2019;SDS011;1014;51.960;8.542;2023-04-24T07:55:41;24.20;;;22.53;;
2019;SDS011;1014;51.960;8.542;2023-04-24T07:58:09;22.50;;;21.10;;
2019;SDS011;1014;51.960;8.542;2023-04-24T08:00:37;22.40;;;21.00;;
2019;SDS011;1014;51.960;8.542;2023-04-24T08:03:06;24.60;;;23.00;;
2019;SDS011;1014;51.960;8.542;2023-04-24T08:05:34;25.00;;;23.20;;
2019;SDS011;1014;51.960;8.542;2023-04-24T08:08:02;23.87;;;22.30;;
2019;SDS011;1014;51.960;8.542;2023-04-24T08:10:32;21.00;;;19.90;;
2019;SDS011;1014;51.960;8.542;2023-04-24T08:12:59;22.50;;;21.27;;
2019;SDS011;1014;51.960;8.542;2023-04-24T08:15:27;22.07;;;20.67;;
2019;SDS011;1014;51.960;8.542;2023-04-24T08:17:55;21.70;;;20.50;;
2019;SDS011;1014;51.960;8.542;2023-04-24T08:20:24;23.23;;;21.87;;
2019;SDS011;1014;51.960;8.542;2023-04-24T08:22:52;22.57;;;21.17;;
2019;SDS011;1014;51.960;8.542;2023-04-24T08:25:22;23.30;;;21.90;;
2019;SDS011;1014;51.960;8.542;2023-04-24T08:27:54;23.37;;;21.97;;
2019;SDS011;1014;51.960;8.542;2023-04-24T08:30:23;22.30;;;20.87;;
2019;SDS011;1014;51.960;8.542;2023-04-24T08:32:51;22.67;;;21.30;;
2019;SDS011;1014;51.960;8.542;2023-04-24T08:35:18;22.67;;;21.37;;
2019;SDS011;1014;51.960;8.542;2023-04-24T08:37:52;21.90;;;20.60;;
2019;SDS011;1014;51.960;8.542;2023-04-24T08:40:27;22.27;;;20.97;;
2019;SDS011;1014;51.960;8.542;2023-04-24T08:42:55;24.13;;;22.43;;
2019;SDS011;1014;51.960;8.542;2023-04-24T08:45:24;21.43;;;20.33;;
2019;SDS011;1014;51.960;8.542;2023-04-24T08:47:52;21.87;;;20.67;;
2019;SDS011;1014;51.960;8.542;2023-04-24T08:50:20;19.60;;;18.60;;
2019;SDS011;1014;51.960;8.542;2023-04-24T08:52:49;20.40;;;19.40;;
2019;SDS011;1014;51.960;8.542;2023-04-24T08:55:19;22.40;;;21.10;;
2019;SDS011;1014;51.960;8.542;2023-04-24T08:57:49;22.70;;;21.40;;
2019;SDS011;1014;51.960;8.542;2023-04-24T09:00:19;20.97;;;19.87;;
2019;SDS011;1014;51.960;8.542;2023-04-24T09:02:47;20.90;;;19.80;;
2019;SDS011;1014;51.960;8.542;2023-04-24T09:05:25;21.60;;;20.40;;
2019;SDS011;1014;51.960;8.542;2023-04-24T09:07:54;22.13;;;20.80;;
2019;SDS011;1014;51.960;8.542;2023-04-24T09:10:23;22.17;;;21.07;;
2019;SDS011;1014;51.960;8.542;2023-04-24T09:12:51;20.17;;;19.17;;
2019;SDS011;1014;51.960;8.542;2023-04-24T09:15:21;20.70;;;19.60;;
2019;SDS011;1014;51.960;8.542;2023-04-24T09:17:49;21.20;;;20.00;;
2019;SDS011;1014;51.960;8.542;2023-04-24T09:20:19;22.53;;;21.13;;
2019;SDS011;1014;51.960;8.542;2023-04-24T09:22:47;20.47;;;19.37;;
2019;SDS011;1014;51.960;8.542;2023-04-24T09:25:16;21.93;;;20.03;;
2019;SDS011;1014;51.960;8.542;2023-04-24T09:27:45;20.20;;;19.10;;
2019;SDS011;1014;51.960;8.542;2023-04-24T09:30:14;20.17;;;19.10;;
2019;SDS011;1014;51.960;8.542;2023-04-24T09:32:49;21.40;;;20.23;;
2019;SDS011;1014;51.960;8.542;2023-04-24T09:35:17;19.47;;;18.47;;
2019;SDS011;1014;51.960;8.542;2023-04-24T09:37:47;19.67;;;18.57;;
2019;SDS011;1014;51.960;8.542;2023-04-24T09:40:17;19.80;;;18.73;;
2019;SDS011;1014;51.960;8.542;2023-04-24T09:42:45;19.70;;;18.70;;
2019;SDS011;1014;51.960;8.542;2023-04-24T09:45:13;18.90;;;17.90;;
2019;SDS011;1014;51.960;8.542;2023-04-24T09:47:41;20.23;;;19.03;;
2019;SDS011;1014;51.960;8.542;2023-04-24T09:50:09;20.60;;;19.50;;
2019;SDS011;1014;51.960;8.542;2023-04-24T09:52:39;20.37;;;19.27;;
2019;SDS011;1014;51.960;8.542;2023-04-24T09:55:15;21.70;;;20.20;;
2019;SDS011;1014;51.960;8.542;2023-04-24T09:57:51;20.70;;;19.50;;
2019;SDS011;1014;51.960;8.542;2023-04-24T10:00:22;19.73;;;18.73;;
2019;SDS011;1014;51.960;8.542;2023-04-24T10:02:50;19.67;;;18.73;;
2019;SDS011;1014;51.960;8.542;2023-04-24T10:05:19;19.83;;;18.73;;
2019;SDS011;1014;51.960;8.542;2023-04-24T10:07:50;20.30;;;19.20;;
2019;SDS011;1014;51.960;8.542;2023-04-24T10:10:18;28.87;;;19.90;;
2019;SDS011;1014;51.960;8.542;2023-04-24T10:12:46;19.10;;;18.20;;
2019;SDS011;1014;51.960;8.542;2023-04-24T10:15:15;19.10;;;18.20;;
2019;SDS011;1014;51.960;8.542;2023-04-24T10:17:46;18.70;;;17.80;;
2019;SDS011;1014;51.960;8.542;2023-04-24T10:20:18;18.83;;;17.90;;
2019;SDS011;1014;51.960;8.542;2023-04-24T10:22:47;18.50;;;17.60;;
2019;SDS011;1014;51.960;8.542;2023-04-24T10:25:17;18.50;;;17.60;;
2019;SDS011;1014;51.960;8.542;2023-04-24T10:27:46;19.00;;;18.10;;
2019;SDS011;1014;51.960;8.542;2023-04-24T10:30:15;19.03;;;18.10;;
2019;SDS011;1014;51.960;8.542;2023-04-24T10:32:42;18.60;;;17.60;;
2019;SDS011;1014;51.960;8.542;2023-04-24T10:35:10;19.57;;;18.57;;
2019;SDS011;1014;51.960;8.542;2023-04-24T10:37:40;20.03;;;18.93;;
2019;SDS011;1014;51.960;8.542;2023-04-24T10:40:09;20.40;;;19.07;;
2019;SDS011;1014;51.960;8.542;2023-04-24T10:42:39;19.13;;;18.10;;
2019;SDS011;1014;51.960;8.542;2023-04-24T10:45:16;20.77;;;19.67;;
2019;SDS011;1014;51.960;8.542;2023-04-24T10:47:51;251.45;;;156.30;;
2019;SDS011;1014;51.960;8.542;2023-04-24T10:50:18;327.48;;;205.35;;
2019;SDS011;1014;51.960;8.542;2023-04-24T10:52:45;293.63;;;177.17;;
2019;SDS011;1014;51.960;8.542;2023-04-24T10:55:12;336.90;;;164.52;;
2019;SDS011;1014;51.960;8.542;2023-04-24T10:57:40;335.67;;;164.43;;
2019;SDS011;1014;51.960;8.542;2023-04-24T11:00:28;409.77;;;168.13;;
2019;SDS011;1014;51.960;8.542;2023-04-24T11:02:55;431.38;;;157.15;;
2019;SDS011;1014;51.960;8.542;2023-04-24T11:05:48;441.25;;;164.50;;
2019;SDS011;1014;51.960;8.542;2023-04-24T11:08:21;432.23;;;160.55;;
2019;SDS011;1014;51.960;8.542;2023-04-24T11:10:54;440.42;;;151.70;;
2019;SDS011;1014;51.960;8.542;2023-04-24T11:13:21;337.08;;;117.68;;
2019;SDS011;1014;51.960;8.542;2023-04-24T11:18:36;20.47;;;19.40;;
2019;SDS011;1014;51.960;8.542;2023-04-24T11:21:09;20.30;;;19.10;;
2019;SDS011;1014;51.960;8.542;2023-04-24T11:23:37;365.02;;;136.18;;
2019;SDS011;1014;51.960;8.542;2023-04-24T11:26:11;19.53;;;18.50;;
2019;SDS011;1014;51.960;8.542;2023-04-24T11:28:46;170.03;;;71.77;;
2019;SDS011;1014;51.960;8.542;2023-04-24T11:34:05;21.27;;;19.97;;
2019;SDS011;1014;51.960;8.542;2023-04-24T11:36:32;21.00;;;19.60;;
2019;SDS011;1014;51.960;8.542;2023-04-24T11:39:01;23.43;;;22.03;;
2019;SDS011;1014;51.960;8.542;2023-04-24T11:41:28;20.53;;;19.40;;
2019;SDS011;1014;51.960;8.542;2023-04-24T11:43:55;22.00;;;20.77;;
2019;SDS011;1014;51.960;8.542;2023-04-24T11:46:22;31.50;;;29.80;;
2019;SDS011;1014;51.960;8.542;2023-04-24T11:48:49;39.63;;;37.63;;
2019;SDS011;1014;51.960;8.542;2023-04-24T11:51:16;40.83;;;37.63;;
2019;SDS011;1014;51.960;8.542;2023-04-24T11:53:43;33.60;;;31.60;;
2019;SDS011;1014;51.960;8.542;2023-04-24T11:56:16;58.43;;;52.17;;
2019;SDS011;1014;51.960;8.542;2023-04-24T11:58:45;44.50;;;40.93;;
2019;SDS011;1014;51.960;8.542;2023-04-24T12:01:12;115.77;;;98.87;;
2019;SDS011;1014;51.960;8.542;2023-04-24T12:03:40;76.17;;;61.30;;
2019;SDS011;1014;51.960;8.542;2023-04-24T12:06:09;39.70;;;36.30;;
2019;SDS011;1014;51.960;8.542;2023-04-24T12:08:36;43.93;;;39.93;;
2019;SDS011;1014;51.960;8.542;2023-04-24T12:11:04;43.30;;;39.63;;
2019;SDS011;1014;51.960;8.542;2023-04-24T12:13:34;51.53;;;45.43;;
2019;SDS011;1014;51.960;8.542;2023-04-24T12:16:02;53.33;;;48.07;;
2019;SDS011;1014;51.960;8.542;2023-04-24T12:18:29;56.83;;;51.93;;
2019;SDS011;1014;51.960;8.542;2023-04-24T12:23:38;79.07;;;72.20;;
2019;SDS011;1014;51.960;8.542;2023-04-24T12:26:05;81.33;;;77.23;;
2019;SDS011;1014;51.960;8.542;2023-04-24T12:28:35;87.53;;;82.30;;
2019;SDS011;1014;51.960;8.542;2023-04-24T12:31:03;61.00;;;56.23;;
2019;SDS011;1014;51.960;8.542;2023-04-24T12:33:32;60.80;;;56.90;;
2019;SDS011;1014;51.960;8.542;2023-04-24T12:35:59;128.43;;;121.63;;
2019;SDS011;1014;51.960;8.542;2023-04-24T12:38:27;126.07;;;119.47;;
2019;SDS011;1014;51.960;8.542;2023-04-24T12:41:01;135.20;;;127.77;;
2019;SDS011;1014;51.960;8.542;2023-04-24T12:43:29;97.60;;;93.10;;
2019;SDS011;1014;51.960;8.542;2023-04-24T12:45:57;184.87;;;172.77;;
2019;SDS011;1014;51.960;8.542;2023-04-24T12:48:26;241.52;;;223.70;;
2019;SDS011;1014;51.960;8.542;2023-04-24T12:50:53;384.65;;;198.13;;
2019;SDS011;1014;51.960;8.542;2023-04-24T12:53:21;124.13;;;117.53;;
2019;SDS011;1014;51.960;8.542;2023-04-24T12:55:51;92.70;;;87.80;;
2019;SDS011;1014;51.960;8.542;2023-04-24T12:58:19;110.87;;;104.63;;
2019;SDS011;1014;51.960;8.542;2023-04-24T13:00:46;319.70;;;204.30;;
2019;SDS011;1014;51.960;8.542;2023-04-24T13:03:15;446.88;;;212.18;;
2019;SDS011;1014;51.960;8.542;2023-04-24T13:05:42;338.08;;;190.95;;
2019;SDS011;1014;51.960;8.542;2023-04-24T13:08:09;189.87;;;176.63;;
2019;SDS011;1014;51.960;8.542;2023-04-24T13:10:37;124.17;;;116.63;;
2019;SDS011;1014;51.960;8.542;2023-04-24T13:13:05;122.23;;;116.23;;
2019;SDS011;1014;51.960;8.542;2023-04-24T13:15:33;212.77;;;188.68;;
2019;SDS011;1014;51.960;8.542;2023-04-24T13:18:00;80.10;;;75.20;;
2019;SDS011;1014;51.960;8.542;2023-04-24T13:20:28;153.03;;;144.60;;
2019;SDS011;1014;51.960;8.542;2023-04-24T13:22:55;400.00;;;220.02;;
2019;SDS011;1014;51.960;8.542;2023-04-24T13:25:22;379.20;;;198.35;;
2019;SDS011;1014;51.960;8.542;2023-04-24T13:27:50;315.63;;;204.85;;
2019;SDS011;1014;51.960;8.542;2023-04-24T13:30:17;96.10;;;90.77;;
2019;SDS011;1014;51.960;8.542;2023-04-24T13:32:44;77.87;;;73.13;;
2019;SDS011;1014;51.960;8.542;2023-04-24T13:35:11;68.80;;;64.40;;
2019;SDS011;1014;51.960;8.542;2023-04-24T13:37:39;72.67;;;68.13;;
2019;SDS011;1014;51.960;8.542;2023-04-24T13:40:06;66.00;;;61.77;;
2019;SDS011;1014;51.960;8.542;2023-04-24T13:42:34;64.53;;;60.17;;
2019;SDS011;1014;51.960;8.542;2023-04-24T13:45:01;74.17;;;69.63;;
2019;SDS011;1014;51.960;8.542;2023-04-24T13:47:29;65.50;;;61.57;;
2019;SDS011;1014;51.960;8.542;2023-04-24T13:49:56;72.03;;;67.37;;
2019;SDS011;1014;51.960;8.542;2023-04-24T13:52:23;94.33;;;88.87;;
2019;SDS011;1014;51.960;8.542;2023-04-24T13:54:51;106.03;;;99.43;;
2019;SDS011;1014;51.960;8.542;2023-04-24T13:57:18;100.40;;;94.87;;
2019;SDS011;1014;51.960;8.542;2023-04-24T13:59:45;61.63;;;57.70;;
2019;SDS011;1014;51.960;8.542;2023-04-24T14:02:13;70.13;;;64.80;;
2019;SDS011;1014;51.960;8.542;2023-04-24T14:04:40;59.00;;;54.70;;
2019;SDS011;1014;51.960;8.542;2023-04-24T14:07:07;64.50;;;59.57;;
2019;SDS011;1014;51.960;8.542;2023-04-24T14:09:34;122.53;;;114.53;;
2019;SDS011;1014;51.960;8.542;2023-04-24T14:12:02;133.60;;;123.07;;
2019;SDS011;1014;51.960;8.542;2023-04-24T14:14:29;107.23;;;100.03;;
2019;SDS011;1014;51.960;8.542;2023-04-24T14:16:56;98.63;;;92.03;;
2019;SDS011;1014;51.960;8.542;2023-04-24T14:19:24;96.50;;;90.10;;
2019;SDS011;1014;51.960;8.542;2023-04-24T14:21:51;68.73;;;63.97;;
2019;SDS011;1014;51.960;8.542;2023-04-24T14:24:18;62.73;;;58.23;;
2019;SDS011;1014;51.960;8.542;2023-04-24T14:26:45;59.80;;;55.97;;
2019;SDS011;1014;51.960;8.542;2023-04-24T14:29:14;60.70;;;55.83;;
2019;SDS011;1014;51.960;8.542;2023-04-24T14:31:41;54.60;;;50.00;;
2019;SDS011;1014;51.960;8.542;2023-04-24T14:34:08;57.87;;;52.83;;
2019;SDS011;1014;51.960;8.542;2023-04-24T14:36:35;83.60;;;76.70;;
2019;SDS011;1014;51.960;8.542;2023-04-24T14:39:02;51.50;;;47.57;;
2019;SDS011;1014;51.960;8.542;2023-04-24T14:41:31;49.10;;;45.50;;
2019;SDS011;1014;51.960;8.542;2023-04-24T14:44:00;43.53;;;40.70;;
2019;SDS011;1014;51.960;8.542;2023-04-24T14:46:29;126.83;;;114.97;;
2019;SDS011;1014;51.960;8.542;2023-04-24T14:48:56;44.97;;;41.77;;
2019;SDS011;1014;51.960;8.542;2023-04-24T14:51:23;44.60;;;41.47;;
2019;SDS011;1014;51.960;8.542;2023-04-24T14:53:51;43.57;;;40.13;;
2019;SDS011;1014;51.960;8.542;2023-04-24T14:56:18;39.67;;;36.87;;
2019;SDS011;1014;51.960;8.542;2023-04-24T14:58:45;45.73;;;41.13;;
2019;SDS011;1014;51.960;8.542;2023-04-24T15:01:13;71.57;;;65.57;;
2019;SDS011;1014;51.960;8.542;2023-04-24T15:03:41;34.93;;;32.40;;
2019;SDS011;1014;51.960;8.542;2023-04-24T15:06:08;48.70;;;44.87;;